Time;durP1;ratioP1;P1;durP2;ratioP2;P2;SDS_P1;SDS_P2;PMS_P1;PMS_P2;Temp;Humidity;BMP_temperature;BMP_pressure;BME280_temperature;BME280_humidity;BME280_pressure;Samples;Min_cycle;Max_cycle;Signal;HPM_P1;HPM_P2
2023/06/23 00:01:32;;;;;;;5.85;3.95;;;17.30;99.90;;;;;;5022710;28;20503;-64
2023/06/23 00:03:59;;;;;;;7.28;3.72;;;17.30;99.90;;;;;;5023760;28;20042;-63
2023/06/23 00:06:27;;;;;;;4.57;4.18;;;17.20;99.90;;;;;;5021568;28;20464;-66
2023/06/23 00:08:54;;;;;;;3.08;2.78;;;17.20;99.90;;;;;;5024673;28;20174;-63
2023/06/23 00:11:21;;;;;;;3.88;3.50;;;17.20;99.90;;;;;;5020565;28;20163;-62
2023/06/23 00:13:50;;;;;;;5.53;3.47;;;17.20;99.90;;;;;;5027753;28;20099;-64
2023/06/23 00:16:17;;;;;;;4.35;3.95;;;17.20;99.90;;;;;;5022873;28;20048;-65
2023/06/23 00:18:44;;;;;;;4.22;3.33;;;17.20;99.90;;;;;;5023335;28;20045;-65
2023/06/23 00:21:11;;;;;;;4.70;4.05;;;17.20;99.90;;;;;;5018255;28;20033;-66
2023/06/23 00:23:39;;;;;;;4.53;3.05;;;17.20;99.90;;;;;;5023114;28;20896;-67
2023/06/23 00:26:07;;;;;;;5.38;3.67;;;17.20;99.90;;;;;;5023131;28;20041;-62
2023/06/23 00:28:35;;;;;;;6.22;4.07;;;17.20;99.90;;;;;;5026578;28;20033;-66
2023/06/23 00:31:02;;;;;;;9.05;5.22;;;17.20;99.90;;;;;;5038395;28;20060;-62
2023/06/23 00:33:30;;;;;;;7.10;4.57;;;17.20;99.90;;;;;;5025510;28;20523;-67
2023/06/23 00:35:57;;;;;;;4.38;3.88;;;17.30;99.90;;;;;;5022660;28;20092;-64
2023/06/23 00:38:25;;;;;;;4.93;3.72;;;17.30;99.90;;;;;;5020529;28;20056;-63
2023/06/23 00:40:53;;;;;;;4.10;3.72;;;17.30;99.90;;;;;;5022852;28;20132;-70
2023/06/23 00:43:21;;;;;;;5.00;3.97;;;17.30;99.90;;;;;;5021968;28;20041;-67
2023/06/23 00:45:49;;;;;;;4.13;3.30;;;17.30;99.90;;;;;;5015030;28;20407;-65
2023/06/23 00:48:17;;;;;;;5.20;4.30;;;17.30;99.90;;;;;;5024969;28;20046;-63
2023/06/23 00:50:44;;;;;;;5.60;3.92;;;17.30;99.90;;;;;;5025329;28;20045;-66
2023/06/23 00:53:12;;;;;;;4.88;3.88;;;17.20;99.90;;;;;;5026347;28;20619;-67
2023/06/23 00:55:39;;;;;;;4.43;3.78;;;17.10;99.90;;;;;;5024834;28;20050;-64
2023/06/23 00:58:09;;;;;;;5.15;3.63;;;17.10;99.90;;;;;;5023870;28;20111;-64
2023/06/23 01:00:36;;;;;;;4.32;3.80;;;17.00;99.90;;;;;;5023814;28;20430;-64
2023/06/23 01:03:03;;;;;;;3.42;2.92;;;16.90;99.90;;;;;;5024487;28;20725;-64
2023/06/23 01:05:37;;;;;;;5.45;3.60;;;16.80;99.90;;;;;;5021652;28;20132;-66
2023/06/23 01:08:42;;;;;;;5.68;4.30;;;16.80;99.90;;;;;;5020848;28;20396;-63
2023/06/23 01:11:15;;;;;;;5.65;4.25;;;16.80;99.90;;;;;;5021787;28;20095;-66
2023/06/23 01:14:10;;;;;;;5.28;4.13;;;16.80;99.90;;;;;;5026186;28;20041;-63
2023/06/23 01:16:58;;;;;;;6.40;4.57;;;16.80;99.90;;;;;;5019641;28;20053;-62
2023/06/23 01:19:52;;;;;;;4.28;3.60;;;16.80;99.90;;;;;;5025164;28;20103;-63
2023/06/23 01:22:25;;;;;;;4.82;3.55;;;16.70;99.90;;;;;;5020610;28;20124;-65
2023/06/23 01:25:06;;;;;;;6.40;4.35;;;16.70;99.90;;;;;;5024113;28;20049;-64
2023/06/23 01:28:02;;;;;;;4.60;3.95;;;16.70;99.90;;;;;;5018863;28;20049;-62
2023/06/23 01:30:32;;;;;;;6.25;4.45;;;16.60;99.90;;;;;;5023999;28;20045;-62
2023/06/23 01:33:08;;;;;;;5.60;4.65;;;16.70;99.90;;;;;;5025281;28;20964;-64
2023/06/23 01:35:43;;;;;;;4.90;3.90;;;16.70;99.90;;;;;;5021631;28;20041;-69
2023/06/23 01:38:38;;;;;;;5.10;4.50;;;16.70;99.90;;;;;;5023081;28;20080;-66
2023/06/23 01:41:15;;;;;;;6.30;4.85;;;16.70;99.90;;;;;;5022405;28;20108;-68
2023/06/23 01:43:46;;;;;;;5.47;4.10;;;16.70;99.90;;;;;;5021749;28;20135;-64
2023/06/23 01:46:25;;;;;;;4.40;4.00;;;16.70;99.90;;;;;;5024840;28;20046;-64
2023/06/23 01:48:57;;;;;;;7.50;4.93;;;16.70;99.90;;;;;;5022940;28;20438;-65
2023/06/23 01:51:26;;;;;;;4.68;4.28;;;16.70;99.90;;;;;;5025439;28;20045;-62
2023/06/23 01:53:54;;;;;;;4.35;3.95;;;16.80;99.90;;;;;;5021515;28;20069;-65
2023/06/23 01:56:23;;;;;;;4.70;4.25;;;16.80;99.90;;;;;;5038738;28;20041;-63
2023/06/23 01:58:52;;;;;;;4.90;4.47;;;16.70;99.90;;;;;;5026718;28;20053;-64
2023/06/23 02:01:20;;;;;;;6.80;4.72;;;16.70;99.90;;;;;;5022624;28;20060;-65
2023/06/23 02:03:48;;;;;;;4.47;4.18;;;16.70;99.90;;;;;;5017875;28;20057;-62
2023/06/23 02:06:17;;;;;;;7.28;4.45;;;16.60;99.90;;;;;;5020727;28;20053;-64
2023/06/23 02:08:45;;;;;;;6.95;4.30;;;16.60;99.90;;;;;;5020664;28;20057;-63
2023/06/23 02:11:13;;;;;;;6.88;4.47;;;16.50;99.90;;;;;;5023117;28;20073;-69
2023/06/23 02:13:42;;;;;;;5.18;3.80;;;16.40;99.90;;;;;;5021700;28;20045;-66
2023/06/23 02:16:12;;;;;;;4.55;4.05;;;16.40;99.90;;;;;;5020638;28;20060;-66
2023/06/23 02:18:41;;;;;;;8.05;5.60;;;16.40;99.90;;;;;;5020334;28;20434;-63
2023/06/23 02:21:10;;;;;;;6.85;4.10;;;16.30;99.90;;;;;;5020686;28;20120;-67
2023/06/23 02:23:38;;;;;;;6.20;4.53;;;16.30;99.90;;;;;;5020266;28;20073;-64
2023/06/23 02:26:06;;;;;;;5.78;4.13;;;16.20;99.90;;;;;;5020174;28;20103;-64
2023/06/23 02:28:35;;;;;;;5.25;4.75;;;16.20;99.90;;;;;;5020323;28;20526;-65
2023/06/23 02:31:04;;;;;;;5.75;4.78;;;16.20;99.90;;;;;;5022068;28;20095;-65
2023/06/23 02:33:31;;;;;;;4.68;4.13;;;16.20;99.90;;;;;;5023508;28;20045;-63
2023/06/23 02:35:59;;;;;;;5.68;4.57;;;16.10;99.90;;;;;;5022572;28;20091;-62
2023/06/23 02:38:30;;;;;;;6.40;4.63;;;16.10;99.90;;;;;;5023565;28;20062;-64
2023/06/23 02:40:59;;;;;;;6.27;5.57;;;16.10;99.90;;;;;;5022558;28;20075;-63
2023/06/23 02:43:35;;;;;;;4.15;3.75;;;16.10;99.90;;;;;;5021119;28;20604;-63
2023/06/23 02:46:08;;;;;;;6.60;5.80;;;16.10;99.90;;;;;;5024977;28;20487;-66
2023/06/23 02:48:39;;;;;;;5.88;5.28;;;16.20;99.90;;;;;;5017530;28;20061;-62
2023/06/23 02:51:09;;;;;;;5.40;4.88;;;16.20;99.90;;;;;;5024764;28;20172;-64
2023/06/23 02:53:42;;;;;;;5.65;4.45;;;16.20;99.90;;;;;;5024605;28;20045;-65
2023/06/23 02:56:17;;;;;;;5.32;4.82;;;16.30;99.90;;;;;;5025115;28;20042;-66
2023/06/23 02:58:47;;;;;;;10.77;5.63;;;16.30;99.90;;;;;;5019744;28;20416;-69
2023/06/23 03:01:15;;;;;;;8.23;5.03;;;16.30;99.90;;;;;;5022674;28;20041;-64
2023/06/23 03:03:44;;;;;;;6.93;4.75;;;16.30;99.90;;;;;;5023942;28;20525;-64
2023/06/23 03:06:21;;;;;;;9.48;5.05;;;16.40;99.90;;;;;;5022388;28;20061;-66
2023/06/23 03:08:50;;;;;;;7.93;6.22;;;16.40;99.90;;;;;;5020965;28;20068;-63
2023/06/23 03:11:21;;;;;;;5.28;4.50;;;16.40;99.90;;;;;;5021882;28;20041;-62
2023/06/23 03:13:48;;;;;;;8.82;6.82;;;16.50;99.90;;;;;;5020501;28;20038;-64
2023/06/23 03:16:25;;;;;;;7.53;5.70;;;16.50;99.90;;;;;;5021092;28;20096;-62
2023/06/23 03:19:04;;;;;;;6.93;5.30;;;16.50;99.90;;;;;;5023500;28;20034;-62
2023/06/23 03:21:34;;;;;;;4.78;4.38;;;16.60;99.90;;;;;;5038607;28;20060;-63
2023/06/23 03:24:06;;;;;;;6.60;5.47;;;16.60;99.90;;;;;;5024638;28;20132;-63
2023/06/23 03:26:36;;;;;;;7.78;5.32;;;16.70;99.90;;;;;;5025332;28;20045;-64
2023/06/23 03:29:08;;;;;;;6.38;4.70;;;16.70;99.90;;;;;;5025915;28;20041;-64
2023/06/23 03:31:41;;;;;;;5.05;4.65;;;16.70;99.90;;;;;;5026681;28;20045;-63
2023/06/23 03:34:08;;;;;;;7.25;5.45;;;16.70;99.90;;;;;;5040554;28;20122;-64
2023/06/23 03:36:38;;;;;;;4.82;4.32;;;16.80;99.90;;;;;;5024382;28;20402;-62
2023/06/23 03:39:20;;;;;;;5.43;4.95;;;16.80;99.90;;;;;;5021525;28;20438;-68
2023/06/23 03:41:48;;;;;;;8.07;6.00;;;16.80;99.90;;;;;;5027297;28;20034;-66
2023/06/23 03:44:26;;;;;;;5.22;4.72;;;16.90;99.90;;;;;;5027257;28;20096;-66
2023/06/23 03:46:57;;;;;;;5.05;4.60;;;17.00;99.90;;;;;;5025137;28;20042;-66
2023/06/23 03:49:46;;;;;;;5.13;4.45;;;17.00;99.90;;;;;;5024662;28;20053;-67
2023/06/23 03:52:17;;;;;;;6.20;4.45;;;17.10;99.90;;;;;;5026456;28;20034;-64
2023/06/23 03:54:47;;;;;;;9.73;5.70;;;17.10;99.90;;;;;;5025550;28;20098;-67
2023/06/23 03:57:18;;;;;;;4.30;3.83;;;17.20;99.90;;;;;;5026932;28;20142;-63
2023/06/23 03:59:47;;;;;;;7.13;5.10;;;17.20;99.90;;;;;;5025001;28;20076;-64
2023/06/23 04:02:17;;;;;;;7.40;5.32;;;17.30;99.90;;;;;;5025988;28;20099;-66
2023/06/23 04:04:46;;;;;;;7.80;4.80;;;17.30;99.90;;;;;;5023917;28;20046;-67
2023/06/23 04:07:14;;;;;;;5.05;4.45;;;17.30;99.90;;;;;;5025334;28;20550;-67
2023/06/23 04:09:47;;;;;;;4.97;4.38;;;17.40;99.90;;;;;;5025949;28;20561;-67
2023/06/23 04:12:15;;;;;;;4.30;3.90;;;17.40;99.90;;;;;;5026049;28;20069;-63
2023/06/23 04:14:45;;;;;;;6.43;4.38;;;17.40;99.90;;;;;;5023569;28;20149;-66
2023/06/23 04:17:13;;;;;;;4.80;4.00;;;17.50;99.90;;;;;;5027074;28;20091;-63
2023/06/23 04:19:45;;;;;;;7.00;5.15;;;17.50;99.90;;;;;;5028449;28;20454;-62
2023/06/23 04:22:14;;;;;;;5.45;4.50;;;17.60;99.90;;;;;;5022256;28;20479;-66
2023/06/23 04:24:42;;;;;;;4.85;4.00;;;17.60;99.90;;;;;;5026279;28;20075;-62
2023/06/23 04:27:13;;;;;;;4.80;4.30;;;17.70;99.90;;;;;;5023651;28;20093;-64
2023/06/23 04:29:43;;;;;;;5.22;4.78;;;17.70;99.90;;;;;;5023463;28;20111;-65
2023/06/23 04:32:11;;;;;;;6.15;4.68;;;17.70;99.90;;;;;;5021928;28;20084;-69
2023/06/23 04:34:38;;;;;;;4.32;3.92;;;17.70;99.90;;;;;;5021622;28;20084;-68
2023/06/23 04:37:41;;;;;;;4.35;3.95;;;17.80;99.90;;;;;;5024200;28;20046;-62
2023/06/23 04:40:21;;;;;;;6.90;4.38;;;17.80;99.90;;;;;;5017371;28;20140;-67
2023/06/23 04:42:54;;;;;;;5.68;3.55;;;17.80;99.90;;;;;;5024562;28;20040;-63
2023/06/23 04:45:25;;;;;;;4.78;4.38;;;17.80;99.90;;;;;;5022493;28;20037;-62
2023/06/23 04:47:57;;;;;;;4.82;4.43;;;17.90;99.90;;;;;;5025597;28;20054;-63
2023/06/23 04:50:27;;;;;;;7.18;4.78;;;17.90;99.90;;;;;;5024245;28;20049;-66
2023/06/23 04:52:59;;;;;;;10.27;5.88;;;17.90;99.90;;;;;;5025468;28;20052;-65
2023/06/23 04:55:30;;;;;;;6.93;4.55;;;18.00;99.90;;;;;;5019849;28;20045;-63
2023/06/23 04:57:59;;;;;;;5.22;4.70;;;18.00;99.90;;;;;;5021463;28;20037;-63
2023/06/23 05:00:27;;;;;;;5.53;5.03;;;18.00;99.90;;;;;;5025399;28;20060;-63
2023/06/23 05:02:55;;;;;;;6.15;4.57;;;17.90;99.90;;;;;;5026329;28;20460;-62
2023/06/23 05:05:25;;;;;;;5.57;4.20;;;17.90;99.90;;;;;;5025959;28;20044;-66
2023/06/23 05:07:54;;;;;;;5.85;4.40;;;18.00;99.90;;;;;;5026199;28;20522;-64
2023/06/23 05:10:24;;;;;;;5.80;5.23;;;18.00;99.90;;;;;;5023581;28;20439;-65
2023/06/23 05:12:54;;;;;;;6.27;5.03;;;18.00;99.90;;;;;;5023286;28;20069;-62
2023/06/23 05:15:23;;;;;;;6.10;4.80;;;18.10;99.90;;;;;;5020466;28;20128;-65
2023/06/23 05:17:53;;;;;;;5.32;4.50;;;18.10;99.90;;;;;;5023543;28;20038;-63
2023/06/23 05:20:22;;;;;;;4.38;3.90;;;18.10;99.90;;;;;;5025468;28;20061;-63
2023/06/23 05:22:51;;;;;;;4.75;4.20;;;18.20;99.90;;;;;;5026039;28;20095;-64
2023/06/23 05:25:20;;;;;;;6.70;4.25;;;18.20;99.90;;;;;;5024519;28;20107;-63
2023/06/23 05:27:50;;;;;;;5.10;4.45;;;18.20;99.90;;;;;;5022116;28;20491;-63
2023/06/23 05:30:17;;;;;;;;;;;18.30;99.90;;;;;;5025875;28;20095;-63
2023/06/23 05:32:47;;;;;;;4.60;4.20;;;18.30;99.90;;;;;;5022203;28;19925;-66
2023/06/23 05:35:16;;;;;;;7.90;4.43;;;18.40;99.90;;;;;;5018021;28;20054;-64
2023/06/23 05:37:44;;;;;;;5.18;4.70;;;18.40;99.90;;;;;;5023817;28;20736;-64
2023/06/23 05:40:13;;;;;;;6.43;5.78;;;18.40;99.90;;;;;;5025370;28;20399;-66
2023/06/23 05:42:41;;;;;;;4.97;4.07;;;18.40;99.90;;;;;;5022803;28;20063;-65
2023/06/23 05:45:10;;;;;;;5.00;4.30;;;18.40;99.90;;;;;;5021779;28;20111;-65
2023/06/23 05:47:56;;;;;;;5.47;4.60;;;18.40;99.90;;;;;;5025551;28;20099;-65
2023/06/23 05:50:30;;;;;;;5.97;5.05;;;18.50;99.90;;;;;;5022044;28;20041;-69
2023/06/23 05:53:03;;;;;;;4.85;4.45;;;18.50;99.90;;;;;;5026063;28;20052;-65
2023/06/23 05:55:33;;;;;;;8.10;5.78;;;18.40;99.90;;;;;;5026154;28;20056;-66
2023/06/23 05:58:05;;;;;;;5.15;4.65;;;18.50;99.90;;;;;;5020729;28;20191;-66
2023/06/23 06:00:38;;;;;;;8.45;5.78;;;18.50;99.90;;;;;;5021067;28;20041;-64
2023/06/23 06:03:09;;;;;;;4.55;4.18;;;18.50;99.90;;;;;;5022794;28;20045;-62
2023/06/23 06:05:38;;;;;;;5.25;4.75;;;18.40;99.90;;;;;;5025724;28;20526;-64
2023/06/23 06:08:08;;;;;;;5.43;4.82;;;18.40;99.90;;;;;;5022070;28;20062;-64
2023/06/23 06:10:37;;;;;;;5.45;4.95;;;18.50;99.90;;;;;;5025508;28;20045;-66
2023/06/23 06:13:06;;;;;;;6.13;4.95;;;18.50;99.90;;;;;;5022554;28;20111;-63
2023/06/23 06:15:34;;;;;;;5.95;4.60;;;18.50;99.90;;;;;;5019438;28;20054;-64
2023/06/23 06:18:05;;;;;;;5.07;4.57;;;18.50;99.90;;;;;;5017675;28;20081;-63
2023/06/23 06:20:33;;;;;;;4.55;4.10;;;18.50;99.90;;;;;;5024859;28;20499;-63
2023/06/23 06:23:03;;;;;;;4.47;4.05;;;18.60;99.90;;;;;;5018009;28;20038;-63
2023/06/23 06:25:53;;;;;;;5.85;4.03;;;18.60;99.90;;;;;;5027674;28;20044;-62
2023/06/23 06:28:21;;;;;;;7.20;4.75;;;18.60;99.90;;;;;;5021482;28;20045;-63
2023/06/23 06:30:50;;;;;;;5.43;4.75;;;18.60;99.90;;;;;;5022603;28;20041;-62
2023/06/23 06:33:19;;;;;;;6.50;4.43;;;18.60;99.90;;;;;;5023810;28;20080;-63
2023/06/23 06:35:48;;;;;;;7.38;4.63;;;18.50;99.90;;;;;;5022217;28;20051;-67
2023/06/23 06:38:16;;;;;;;9.05;4.78;;;18.60;99.90;;;;;;5026204;28;20384;-63
2023/06/23 06:40:50;;;;;;;7.38;5.00;;;18.70;99.90;;;;;;5021781;28;20061;-63
2023/06/23 06:43:17;;;;;;;7.03;4.35;;;18.60;99.90;;;;;;5037937;28;20149;-62
2023/06/23 06:45:46;;;;;;;6.13;5.53;;;18.60;99.90;;;;;;5021889;28;20060;-61
2023/06/23 06:48:15;;;;;;;4.60;4.07;;;18.50;99.90;;;;;;5023479;28;20042;-65
2023/06/23 06:50:43;;;;;;;7.00;4.93;;;18.60;99.90;;;;;;5023100;28;20096;-63
2023/06/23 06:53:10;;;;;;;8.07;5.53;;;18.60;99.90;;;;;;5026720;28;20053;-65
2023/06/23 06:55:39;;;;;;;5.55;4.80;;;18.60;99.90;;;;;;5024235;28;20483;-61
2023/06/23 06:58:06;;;;;;;9.60;5.68;;;18.60;99.90;;;;;;5039598;28;20057;-62
2023/06/23 07:00:32;;;;;;;5.28;4.75;;;18.60;99.90;;;;;;5024677;28;20084;-63
2023/06/23 07:03:01;;;;;;;6.38;4.90;;;18.60;99.90;;;;;;5027081;28;20416;-62
2023/06/23 07:05:28;;;;;;;5.43;4.90;;;18.50;99.90;;;;;;5026928;28;20056;-63
2023/06/23 07:07:55;;;;;;;4.55;4.13;;;18.50;99.90;;;;;;5027771;28;20049;-62
2023/06/23 07:10:21;;;;;;;5.25;4.38;;;18.50;99.90;;;;;;5026123;28;20135;-63
2023/06/23 07:12:48;;;;;;;7.10;5.28;;;18.40;99.90;;;;;;5027410;28;20064;-65
2023/06/23 07:15:15;;;;;;;5.32;4.82;;;18.40;99.90;;;;;;5027152;28;20045;-63
2023/06/23 07:17:43;;;;;;;7.07;5.80;;;18.30;99.90;;;;;;5024619;28;20041;-63
2023/06/23 07:20:10;;;;;;;7.07;6.03;;;18.40;99.90;;;;;;5026307;28;20590;-65
2023/06/23 07:22:37;;;;;;;7.90;5.20;;;18.50;99.90;;;;;;5025269;28;20045;-62
2023/06/23 07:25:05;;;;;;;6.90;5.43;;;18.40;99.90;;;;;;5026861;28;20045;-65
2023/06/23 07:27:32;;;;;;;6.43;5.00;;;18.50;99.90;;;;;;5025613;28;20103;-65
2023/06/23 07:29:59;;;;;;;5.35;4.80;;;18.50;99.90;;;;;;5025084;28;20041;-62
2023/06/23 07:32:26;;;;;;;5.30;4.80;;;18.50;99.90;;;;;;5027130;28;20131;-65
2023/06/23 07:34:53;;;;;;;5.40;4.90;;;18.60;99.90;;;;;;5027864;28;20099;-64
2023/06/23 07:37:20;;;;;;;6.13;5.43;;;18.80;99.90;;;;;;5025345;28;20040;-62
2023/06/23 07:39:47;;;;;;;5.00;4.53;;;18.90;99.90;;;;;;5025226;28;20056;-63
2023/06/23 07:42:14;;;;;;;6.70;6.05;;;18.90;99.90;;;;;;5023414;28;20037;-64
2023/06/23 07:44:41;;;;;;;4.78;4.32;;;19.10;99.90;;;;;;5024981;28;20045;-63
2023/06/23 07:47:08;;;;;;;5.68;4.90;;;19.10;99.90;;;;;;5024891;28;20037;-64
2023/06/23 07:49:38;;;;;;;7.72;5.47;;;19.20;99.90;;;;;;5026087;28;20056;-65
2023/06/23 07:52:06;;;;;;;5.57;5.00;;;19.30;99.90;;;;;;5026101;28;20045;-63
2023/06/23 07:54:33;;;;;;;5.55;4.97;;;19.30;99.90;;;;;;5025856;28;20045;-65
2023/06/23 07:57:01;;;;;;;5.07;4.30;;;19.50;99.90;;;;;;5023505;28;20089;-63
2023/06/23 07:59:28;;;;;;;6.60;4.95;;;19.60;99.90;;;;;;5028823;28;20046;-64
2023/06/23 08:01:55;;;;;;;7.47;4.32;;;19.80;99.90;;;;;;5024755;28;20495;-62
2023/06/23 08:04:22;;;;;;;6.53;5.85;;;19.80;99.90;;;;;;5022885;28;20579;-63
2023/06/23 08:06:50;;;;;;;8.88;5.85;;;19.70;99.90;;;;;;5026663;28;20555;-63
2023/06/23 08:09:17;;;;;;;7.25;5.47;;;19.70;99.90;;;;;;5026201;28;20057;-69
2023/06/23 08:11:44;;;;;;;4.80;4.28;;;19.70;99.90;;;;;;5024782;28;20565;-62
2023/06/23 08:14:12;;;;;;;6.35;5.75;;;19.70;99.90;;;;;;5023413;28;20152;-62
2023/06/23 08:16:39;;;;;;;6.35;4.93;;;19.70;99.90;;;;;;5025892;28;20042;-65
2023/06/23 08:19:06;;;;;;;6.93;4.90;;;19.80;99.90;;;;;;5022847;28;20057;-63
2023/06/23 08:21:36;;;;;;;7.68;4.43;;;19.90;99.90;;;;;;5025988;28;20053;-62
2023/06/23 08:24:03;;;;;;;8.25;4.78;;;19.80;99.90;;;;;;5025771;28;20534;-66
2023/06/23 08:26:30;;;;;;;4.63;3.72;;;19.80;99.90;;;;;;5026590;28;20068;-63
2023/06/23 08:28:57;;;;;;;4.75;4.07;;;19.80;99.90;;;;;;5024895;28;20068;-63
2023/06/23 08:31:24;;;;;;;4.18;3.65;;;19.90;99.90;;;;;;5023039;28;20060;-63
2023/06/23 08:33:51;;;;;;;4.68;4.25;;;19.90;99.90;;;;;;5025813;28;20060;-62
2023/06/23 08:36:18;;;;;;;5.88;4.85;;;19.90;99.90;;;;;;5023815;28;20037;-63
2023/06/23 08:38:44;;;;;;;5.43;4.15;;;20.00;99.90;;;;;;5024539;28;20053;-65
2023/06/23 08:41:12;;;;;;;5.38;4.63;;;20.30;99.90;;;;;;5028291;28;20129;-65
2023/06/23 08:43:44;;;;;;;5.85;5.32;;;20.40;99.90;;;;;;5025794;28;20542;-62
2023/06/23 08:46:14;;;;;;;5.95;4.30;;;20.20;99.90;;;;;;5026824;28;20038;-67
2023/06/23 08:48:52;;;;;;;5.80;4.25;;;20.10;99.90;;;;;;5027574;28;20038;-65
2023/06/23 08:51:19;;;;;;;8.43;5.10;;;20.20;99.90;;;;;;5024723;28;20115;-62
2023/06/23 08:53:46;;;;;;;6.18;5.65;;;20.30;99.90;;;;;;5023652;28;20045;-64
2023/06/23 08:56:14;;;;;;;4.70;4.18;;;20.30;99.90;;;;;;5026954;28;20030;-65
2023/06/23 08:58:41;;;;;;;6.38;4.50;;;20.30;99.90;;;;;;5025893;28;20041;-62
2023/06/23 09:01:09;;;;;;;5.45;4.95;;;20.40;99.90;;;;;;5026703;28;20049;-62
2023/06/23 09:03:36;;;;;;;5.05;4.53;;;20.20;99.90;;;;;;5025368;28;20485;-64
2023/06/23 09:06:03;;;;;;;5.78;5.13;;;20.30;99.90;;;;;;5023740;28;20044;-62
2023/06/23 09:08:31;;;;;;;5.45;4.30;;;20.20;99.90;;;;;;5025988;28;20119;-63
2023/06/23 09:10:58;;;;;;;5.35;4.07;;;20.30;99.90;;;;;;5023650;28;20170;-63
2023/06/23 09:13:33;;;;;;;8.30;4.72;;;20.40;99.90;;;;;;5026199;28;20111;-69
2023/06/23 09:16:01;;;;;;;7.82;5.35;;;20.60;99.90;;;;;;5024664;28;20132;-63
2023/06/23 09:18:38;;;;;;;7.38;4.68;;;20.60;99.90;;;;;;5026177;28;20049;-68
2023/06/23 09:21:07;;;;;;;5.68;4.88;;;20.40;99.90;;;;;;5021611;28;20061;-61
2023/06/23 09:23:35;;;;;;;6.38;5.35;;;20.50;99.90;;;;;;5023076;28;20049;-65
2023/06/23 09:26:03;;;;;;;6.55;5.43;;;20.50;99.90;;;;;;5024037;28;20045;-65
2023/06/23 09:28:35;;;;;;;5.30;4.80;;;20.50;99.90;;;;;;5024931;28;20065;-61
2023/06/23 09:31:16;;;;;;;5.18;4.68;;;20.30;99.90;;;;;;5020288;28;20073;-67
2023/06/23 09:33:49;;;;;;;7.93;5.75;;;20.50;99.90;;;;;;5024608;28;20045;-62
2023/06/23 09:36:16;;;;;;;6.60;5.00;;;20.40;99.90;;;;;;5023695;28;20048;-62
2023/06/23 09:38:44;;;;;;;11.57;5.13;;;20.40;99.90;;;;;;5024451;28;20037;-67
2023/06/23 09:41:16;;;;;;;7.38;5.50;;;20.30;99.90;;;;;;5024029;28;20095;-62
2023/06/23 09:43:50;;;;;;;5.13;4.25;;;20.20;99.90;;;;;;5018475;28;20037;-68
2023/06/23 09:46:20;;;;;;;6.63;5.82;;;20.20;99.90;;;;;;5025140;28;20095;-64
2023/06/23 09:48:51;;;;;;;6.28;4.57;;;20.00;99.90;;;;;;5022406;28;20559;-65
2023/06/23 09:51:19;;;;;;;6.13;5.45;;;19.90;99.90;;;;;;5024361;28;20037;-68
2023/06/23 09:53:47;;;;;;;6.00;5.50;;;20.00;99.90;;;;;;5023865;28;20136;-63
2023/06/23 09:56:19;;;;;;;7.18;4.93;;;20.20;99.90;;;;;;5018178;28;20038;-68
2023/06/23 09:58:48;;;;;;;7.03;5.47;;;20.50;99.90;;;;;;5023650;28;20048;-63
2023/06/23 10:01:17;;;;;;;10.05;6.32;;;20.70;99.90;;;;;;5019543;28;20046;-63
2023/06/23 10:03:49;;;;;;;9.02;5.90;;;20.70;99.90;;;;;;5021616;28;20049;-64
2023/06/23 10:06:27;;;;;;;6.00;5.22;;;20.50;99.90;;;;;;5019662;28;20046;-63
2023/06/23 10:08:56;;;;;;;9.52;4.70;;;20.40;99.90;;;;;;5024569;28;20699;-69
2023/06/23 10:11:30;;;;;;;6.40;5.55;;;20.40;99.90;;;;;;5022902;28;20057;-62
2023/06/23 10:14:05;;;;;;;7.25;5.15;;;20.60;99.90;;;;;;5023895;28;20822;-63
2023/06/23 10:16:34;;;;;;;6.28;5.68;;;20.60;99.90;;;;;;5024484;28;20057;-64
2023/06/23 10:19:02;;;;;;;5.97;4.82;;;20.70;99.90;;;;;;5025134;28;20047;-63
2023/06/23 10:21:30;;;;;;;7.88;4.55;;;20.90;99.90;;;;;;5026158;28;20103;-63
2023/06/23 10:24:07;;;;;;;7.30;5.32;;;20.80;99.90;;;;;;5022202;28;20530;-65
2023/06/23 10:26:36;;;;;;;6.97;4.93;;;20.70;99.90;;;;;;5018986;28;20037;-63
2023/06/23 10:29:12;;;;;;;6.65;5.63;;;20.70;99.90;;;;;;5024590;28;20045;-64
2023/06/23 10:31:41;;;;;;;6.88;5.55;;;20.60;99.90;;;;;;5021589;28;20033;-61
2023/06/23 10:34:15;;;;;;;7.75;5.00;;;20.70;99.90;;;;;;5023158;28;20577;-64
2023/06/23 10:36:48;;;;;;;6.00;5.20;;;20.80;99.90;;;;;;5020888;28;20048;-62
2023/06/23 10:39:18;;;;;;;5.57;4.70;;;20.90;99.90;;;;;;5018361;28;20034;-67
2023/06/23 10:41:47;;;;;;;6.45;5.18;;;21.10;99.90;;;;;;5020794;28;20045;-66
2023/06/23 10:44:15;;;;;;;9.68;5.70;;;21.30;99.90;;;;;;5023051;28;20091;-62
2023/06/23 10:46:42;;;;;;;7.72;5.47;;;21.40;99.90;;;;;;5025428;28;20107;-61
2023/06/23 10:49:11;;;;;;;7.00;5.15;;;21.30;99.90;;;;;;5023858;28;20127;-63
2023/06/23 10:51:38;;;;;;;6.60;5.57;;;20.90;99.90;;;;;;5024802;28;20057;-63
2023/06/23 10:54:07;;;;;;;6.78;5.45;;;20.90;99.90;;;;;;5025328;28;20092;-62
2023/06/23 10:56:36;;;;;;;6.47;4.75;;;20.90;99.90;;;;;;5022082;28;20050;-63
2023/06/23 10:59:21;;;;;;;7.95;4.97;;;20.90;99.90;;;;;;5024211;28;20083;-62
2023/06/23 11:02:01;;;;;;;9.65;5.50;;;20.90;99.90;;;;;;5022222;28;20436;-63
2023/06/23 11:04:29;;;;;;;8.17;6.73;;;20.90;99.90;;;;;;5021212;28;20049;-64
2023/06/23 11:07:03;;;;;;;6.93;4.60;;;20.90;99.90;;;;;;5024064;28;20306;-65
2023/06/23 11:09:47;;;;;;;6.68;5.90;;;21.00;99.90;;;;;;5017942;28;20088;-61
2023/06/23 11:12:44;;;;;;;13.82;6.25;;;20.90;99.90;;;;;;5023715;28;20045;-62
2023/06/23 11:15:16;;;;;;;5.00;4.47;;;20.90;99.90;;;;;;5019193;28;20076;-67
2023/06/23 11:17:46;;;;;;;6.20;5.05;;;20.80;99.90;;;;;;5021633;28;20446;-63
2023/06/23 11:20:29;;;;;;;5.50;5.00;;;21.00;99.90;;;;;;5023261;28;20037;-63
2023/06/23 11:23:00;;;;;;;6.75;5.18;;;21.20;99.90;;;;;;5020321;28;20042;-62
2023/06/23 11:25:32;;;;;;;7.75;5.38;;;21.30;99.90;;;;;;5023130;28;20133;-62
2023/06/23 11:28:24;;;;;;;6.00;4.68;;;21.40;99.90;;;;;;5020475;28;20141;-63
2023/06/23 11:31:13;;;;;;;7.70;5.80;;;21.20;99.90;;;;;;5022473;28;20053;-64
2023/06/23 11:34:06;;;;;;;5.97;5.43;;;21.30;99.90;;;;;;5024342;28;20089;-68
2023/06/23 11:36:34;;;;;;;7.18;5.22;;;21.40;99.90;;;;;;5017668;28;20473;-63
2023/06/23 11:39:01;;;;;;;8.18;5.75;;;21.60;99.90;;;;;;5023338;28;20553;-63
2023/06/23 11:41:30;;;;;;;5.75;5.18;;;21.70;99.90;;;;;;5023431;28;20053;-68
2023/06/23 11:44:03;;;;;;;9.45;5.93;;;21.80;99.90;;;;;;5023000;28;20120;-66
2023/06/23 11:46:34;;;;;;;5.70;4.55;;;21.80;99.90;;;;;;5025484;28;20045;-63
2023/06/23 11:49:11;;;;;;;4.82;4.25;;;21.80;99.90;;;;;;5025081;28;20037;-64
2023/06/23 11:51:39;;;;;;;5.32;3.97;;;21.90;99.90;;;;;;5027913;28;20057;-63
2023/06/23 11:54:06;;;;;;;6.53;5.30;;;21.90;99.90;;;;;;5024045;28;20045;-64
2023/06/23 11:56:34;;;;;;;5.40;4.53;;;21.80;99.90;;;;;;5026408;28;20128;-63
2023/06/23 11:59:03;;;;;;;5.22;4.72;;;21.80;99.90;;;;;;5028186;28;20491;-64
2023/06/23 12:01:30;;;;;;;8.27;5.10;;;21.70;99.90;;;;;;5027638;28;20091;-68
2023/06/23 12:03:57;;;;;;;6.38;4.75;;;22.00;99.90;;;;;;5026510;28;20059;-66
2023/06/23 12:06:24;;;;;;;5.85;5.10;;;22.00;99.90;;;;;;5024750;28;20037;-62
2023/06/23 12:08:52;;;;;;;5.72;4.13;;;22.20;99.90;;;;;;5025674;28;20045;-63
2023/06/23 12:11:22;;;;;;;5.63;4.82;;;22.30;99.90;;;;;;5026680;28;20483;-62
2023/06/23 12:13:52;;;;;;;6.20;4.32;;;22.30;99.90;;;;;;5027847;28;20069;-66
2023/06/23 12:16:20;;;;;;;4.97;4.45;;;22.30;99.90;;;;;;5024274;28;20095;-62
2023/06/23 12:18:49;;;;;;;4.20;3.80;;;22.40;99.90;;;;;;5023077;28;20092;-64
2023/06/23 12:21:22;;;;;;;5.15;3.70;;;22.30;99.90;;;;;;5025439;28;20067;-67
2023/06/23 12:23:49;;;;;;;4.15;3.72;;;22.20;99.90;;;;;;5024839;28;20369;-65
2023/06/23 12:26:18;;;;;;;6.00;3.97;;;22.30;99.90;;;;;;5025919;28;20434;-67
2023/06/23 12:28:45;;;;;;;5.03;4.43;;;22.40;99.90;;;;;;5025204;28;20096;-65
2023/06/23 12:31:12;;;;;;;8.73;4.88;;;22.40;99.90;;;;;;5025625;28;20095;-62
2023/06/23 12:33:40;;;;;;;4.88;3.50;;;22.20;99.90;;;;;;5027784;28;20128;-63
2023/06/23 12:36:14;;;;;;;4.97;4.28;;;22.30;99.90;;;;;;5025417;28;20643;-67
2023/06/23 12:38:41;;;;;;;4.88;4.47;;;22.40;99.90;;;;;;5021070;28;20045;-62
2023/06/23 12:41:18;;;;;;;7.60;4.18;;;22.50;99.90;;;;;;5025416;28;20061;-65
2023/06/23 12:43:49;;;;;;;5.93;4.68;;;22.50;99.90;;;;;;5019899;28;20111;-65
2023/06/23 12:46:16;;;;;;;6.22;4.20;;;22.60;99.90;;;;;;5026571;28;20502;-65
2023/06/23 12:48:44;;;;;;;5.53;5.03;;;22.60;99.90;;;;;;5024512;28;20037;-67
2023/06/23 12:51:11;;;;;;;5.05;3.78;;;22.40;99.90;;;;;;5024359;28;20071;-63
2023/06/23 12:53:38;;;;;;;6.55;4.50;;;22.60;99.90;;;;;;5026301;28;20037;-65
2023/06/23 12:56:06;;;;;;;5.13;4.00;;;22.70;99.90;;;;;;5025568;28;20483;-64
2023/06/23 12:58:33;;;;;;;4.10;3.80;;;23.00;99.90;;;;;;5024238;28;20299;-63
2023/06/23 13:01:02;;;;;;;5.03;3.95;;;23.30;99.90;;;;;;5025543;28;20128;-62
2023/06/23 13:03:29;;;;;;;4.55;3.72;;;23.40;99.90;;;;;;5024994;28;20041;-65
2023/06/23 13:05:56;;;;;;;4.25;3.75;;;23.40;99.90;;;;;;5027317;28;20037;-62